sensor_id;sensor_type;location;lat;lon;timestamp;temperature;humidity
23445;DHT22;11895;48.738;9.320;2023-06-14T00:00:04;15.50;81.90
23445;DHT22;11895;48.738;9.320;2023-06-14T00:02:34;15.30;81.10
23445;DHT22;11895;48.738;9.320;2023-06-14T00:05:02;15.20;78.90
23445;DHT22;11895;48.738;9.320;2023-06-14T00:07:43;15.10;81.30
23445;DHT22;11895;48.738;9.320;2023-06-14T00:10:11;15.00;82.20
23445;DHT22;11895;48.738;9.320;2023-06-14T00:12:39;15.00;82.40
23445;DHT22;11895;48.738;9.320;2023-06-14T00:15:08;14.90;83.00
23445;DHT22;11895;48.738;9.320;2023-06-14T00:17:38;14.80;83.60
23445;DHT22;11895;48.738;9.320;2023-06-14T00:20:06;15.20;84.30
23445;DHT22;11895;48.738;9.320;2023-06-14T00:22:34;14.70;84.30
23445;DHT22;11895;48.738;9.320;2023-06-14T00:25:03;14.80;81.70
23445;DHT22;11895;48.738;9.320;2023-06-14T00:27:50;15.30;80.80
23445;DHT22;11895;48.738;9.320;2023-06-14T00:30:17;14.50;82.90
23445;DHT22;11895;48.738;9.320;2023-06-14T00:32:45;14.50;80.90
23445;DHT22;11895;48.738;9.320;2023-06-14T00:35:14;14.40;71.20
23445;DHT22;11895;48.738;9.320;2023-06-14T00:37:41;14.60;85.10
23445;DHT22;11895;48.738;9.320;2023-06-14T00:40:09;14.60;83.60
23445;DHT22;11895;48.738;9.320;2023-06-14T00:42:37;14.60;84.30
23445;DHT22;11895;48.738;9.320;2023-06-14T00:45:04;14.70;85.50
23445;DHT22;11895;48.738;9.320;2023-06-14T00:47:32;14.60;84.60
23445;DHT22;11895;48.738;9.320;2023-06-14T00:50:00;14.60;85.20
23445;DHT22;11895;48.738;9.320;2023-06-14T00:52:28;14.60;85.80
23445;DHT22;11895;48.738;9.320;2023-06-14T00:54:56;14.50;85.80
23445;DHT22;11895;48.738;9.320;2023-06-14T00:57:24;14.50;84.90
23445;DHT22;11895;48.738;9.320;2023-06-14T00:59:51;15.70;85.90
23445;DHT22;11895;48.738;9.320;2023-06-14T01:02:19;14.40;83.50
23445;DHT22;11895;48.738;9.320;2023-06-14T01:04:48;14.20;80.70
23445;DHT22;11895;48.738;9.320;2023-06-14T01:10:46;14.20;84.00
23445;DHT22;11895;48.738;9.320;2023-06-14T01:15:55;14.20;86.90
23445;DHT22;11895;48.738;9.320;2023-06-14T01:18:23;14.20;86.90
23445;DHT22;11895;48.738;9.320;2023-06-14T01:20:53;14.10;84.00
23445;DHT22;11895;48.738;9.320;2023-06-14T01:23:24;13.90;84.30
23445;DHT22;11895;48.738;9.320;2023-06-14T01:25:59;14.00;85.80
23445;DHT22;11895;48.738;9.320;2023-06-14T01:28:31;14.10;87.10
23445;DHT22;11895;48.738;9.320;2023-06-14T01:31:02;13.90;84.90
23445;DHT22;11895;48.738;9.320;2023-06-14T01:33:33;13.70;88.70
23445;DHT22;11895;48.738;9.320;2023-06-14T01:36:05;13.90;85.70
23445;DHT22;11895;48.738;9.320;2023-06-14T01:38:36;13.70;84.00
23445;DHT22;11895;48.738;9.320;2023-06-14T01:41:04;13.60;86.70
23445;DHT22;11895;48.738;9.320;2023-06-14T01:43:33;14.00;85.70
23445;DHT22;11895;48.738;9.320;2023-06-14T01:46:04;13.60;89.20
23445;DHT22;11895;48.738;9.320;2023-06-14T01:48:33;14.10;89.90
23445;DHT22;11895;48.738;9.320;2023-06-14T01:51:03;13.60;89.90
23445;DHT22;11895;48.738;9.320;2023-06-14T01:53:30;13.40;90.10
23445;DHT22;11895;48.738;9.320;2023-06-14T01:55:58;13.40;90.10
23445;DHT22;11895;48.738;9.320;2023-06-14T01:58:25;13.30;86.90
23445;DHT22;11895;48.738;9.320;2023-06-14T02:00:53;13.30;86.60
23445;DHT22;11895;48.738;9.320;2023-06-14T02:03:22;13.30;84.00
23445;DHT22;11895;48.738;9.320;2023-06-14T02:05:52;13.70;86.80
23445;DHT22;11895;48.738;9.320;2023-06-14T02:08:19;13.30;84.30
23445;DHT22;11895;48.738;9.320;2023-06-14T02:10:46;13.30;90.70
23445;DHT22;11895;48.738;9.320;2023-06-14T02:13:14;13.70;90.60
23445;DHT22;11895;48.738;9.320;2023-06-14T02:15:41;13.30;88.50
23445;DHT22;11895;48.738;9.320;2023-06-14T02:18:11;13.60;90.20
23445;DHT22;11895;48.738;9.320;2023-06-14T02:20:39;13.20;90.60
23445;DHT22;11895;48.738;9.320;2023-06-14T02:23:06;13.20;86.10
23445;DHT22;11895;48.738;9.320;2023-06-14T02:25:34;13.20;89.80
23445;DHT22;11895;48.738;9.320;2023-06-14T02:28:02;13.20;90.10
23445;DHT22;11895;48.738;9.320;2023-06-14T02:30:31;13.10;86.70
23445;DHT22;11895;48.738;9.320;2023-06-14T02:32:58;13.10;85.50
23445;DHT22;11895;48.738;9.320;2023-06-14T02:35:26;13.00;86.00
23445;DHT22;11895;48.738;9.320;2023-06-14T02:37:55;13.00;84.70
23445;DHT22;11895;48.738;9.320;2023-06-14T02:40:23;13.00;90.40
23445;DHT22;11895;48.738;9.320;2023-06-14T02:42:50;13.20;90.60
23445;DHT22;11895;48.738;9.320;2023-06-14T02:45:17;12.90;90.20
23445;DHT22;11895;48.738;9.320;2023-06-14T02:47:45;12.80;89.20
23445;DHT22;11895;48.738;9.320;2023-06-14T02:50:13;13.00;86.60
23445;DHT22;11895;48.738;9.320;2023-06-14T02:52:41;13.40;91.60
23445;DHT22;11895;48.738;9.320;2023-06-14T02:55:08;12.80;90.90
23445;DHT22;11895;48.738;9.320;2023-06-14T02:57:37;12.80;90.80
23445;DHT22;11895;48.738;9.320;2023-06-14T03:00:07;12.80;91.30
23445;DHT22;11895;48.738;9.320;2023-06-14T03:02:38;12.70;90.70
23445;DHT22;11895;48.738;9.320;2023-06-14T03:05:06;12.70;90.70
23445;DHT22;11895;48.738;9.320;2023-06-14T03:07:35;12.70;90.40
23445;DHT22;11895;48.738;9.320;2023-06-14T03:10:04;12.70;87.60
23445;DHT22;11895;48.738;9.320;2023-06-14T03:12:32;12.70;86.90
23445;DHT22;11895;48.738;9.320;2023-06-14T03:14:59;12.70;88.30
23445;DHT22;11895;48.738;9.320;2023-06-14T03:17:37;12.70;90.60
23445;DHT22;11895;48.738;9.320;2023-06-14T03:20:08;12.70;90.20
23445;DHT22;11895;48.738;9.320;2023-06-14T03:22:37;12.80;90.80
23445;DHT22;11895;48.738;9.320;2023-06-14T03:25:05;12.90;89.70
23445;DHT22;11895;48.738;9.320;2023-06-14T03:27:36;12.90;90.30
23445;DHT22;11895;48.738;9.320;2023-06-14T03:30:05;12.90;91.20
23445;DHT22;11895;48.738;9.320;2023-06-14T03:32:35;12.90;91.30
23445;DHT22;11895;48.738;9.320;2023-06-14T03:35:04;13.20;91.50
23445;DHT22;11895;48.738;9.320;2023-06-14T03:37:32;13.10;91.30
23445;DHT22;11895;48.738;9.320;2023-06-14T03:40:00;13.00;91.70
23445;DHT22;11895;48.738;9.320;2023-06-14T03:42:31;12.90;91.80
23445;DHT22;11895;48.738;9.320;2023-06-14T03:44:58;12.80;91.70
23445;DHT22;11895;48.738;9.320;2023-06-14T03:47:26;13.10;91.60
23445;DHT22;11895;48.738;9.320;2023-06-14T03:49:55;13.10;92.20
23445;DHT22;11895;48.738;9.320;2023-06-14T03:52:22;14.00;92.10
23445;DHT22;11895;48.738;9.320;2023-06-14T03:54:50;12.80;91.60
23445;DHT22;11895;48.738;9.320;2023-06-14T03:57:23;13.00;92.30
23445;DHT22;11895;48.738;9.320;2023-06-14T03:59:51;12.90;91.70
23445;DHT22;11895;48.738;9.320;2023-06-14T04:02:18;13.00;92.20
23445;DHT22;11895;48.738;9.320;2023-06-14T04:04:46;12.70;88.90
23445;DHT22;11895;48.738;9.320;2023-06-14T04:07:15;12.90;90.70
23445;DHT22;11895;48.738;9.320;2023-06-14T04:09:46;13.40;91.60
23445;DHT22;11895;48.738;9.320;2023-06-14T04:12:13;12.90;92.00
23445;DHT22;11895;48.738;9.320;2023-06-14T04:14:40;13.10;93.00
23445;DHT22;11895;48.738;9.320;2023-06-14T04:17:10;13.10;91.40
23445;DHT22;11895;48.738;9.320;2023-06-14T04:19:38;13.10;90.90
23445;DHT22;11895;48.738;9.320;2023-06-14T04:22:07;13.00;90.20
23445;DHT22;11895;48.738;9.320;2023-06-14T04:24:36;12.90;92.30
23445;DHT22;11895;48.738;9.320;2023-06-14T04:27:04;13.00;90.20
23445;DHT22;11895;48.738;9.320;2023-06-14T04:29:31;13.00;90.30
23445;DHT22;11895;48.738;9.320;2023-06-14T04:32:05;13.10;90.40
23445;DHT22;11895;48.738;9.320;2023-06-14T04:34:37;13.10;91.40
23445;DHT22;11895;48.738;9.320;2023-06-14T04:37:07;13.30;92.30
23445;DHT22;11895;48.738;9.320;2023-06-14T04:39:38;13.20;91.20
23445;DHT22;11895;48.738;9.320;2023-06-14T04:42:05;13.20;90.00
23445;DHT22;11895;48.738;9.320;2023-06-14T04:44:35;13.40;91.80
23445;DHT22;11895;48.738;9.320;2023-06-14T04:47:04;13.60;91.20
23445;DHT22;11895;48.738;9.320;2023-06-14T04:49:33;13.70;91.20
23445;DHT22;11895;48.738;9.320;2023-06-14T04:52:01;13.80;91.30
23445;DHT22;11895;48.738;9.320;2023-06-14T04:54:41;13.80;89.50
23445;DHT22;11895;48.738;9.320;2023-06-14T04:57:12;13.90;91.10
23445;DHT22;11895;48.738;9.320;2023-06-14T04:59:41;13.90;90.50
23445;DHT22;11895;48.738;9.320;2023-06-14T05:02:11;13.90;91.00
23445;DHT22;11895;48.738;9.320;2023-06-14T05:04:39;14.00;90.50
23445;DHT22;11895;48.738;9.320;2023-06-14T05:07:07;14.00;90.80
23445;DHT22;11895;48.738;9.320;2023-06-14T05:09:36;14.20;91.00
23445;DHT22;11895;48.738;9.320;2023-06-14T05:12:04;14.30;89.80
23445;DHT22;11895;48.738;9.320;2023-06-14T05:14:34;14.40;88.80
23445;DHT22;11895;48.738;9.320;2023-06-14T05:17:03;15.20;89.70
23445;DHT22;11895;48.738;9.320;2023-06-14T05:19:31;14.90;89.30
23445;DHT22;11895;48.738;9.320;2023-06-14T05:21:58;14.80;85.30
23445;DHT22;11895;48.738;9.320;2023-06-14T05:24:25;14.80;88.90
23445;DHT22;11895;48.738;9.320;2023-06-14T05:26:53;16.10;89.90
23445;DHT22;11895;48.738;9.320;2023-06-14T05:29:20;15.30;89.50
23445;DHT22;11895;48.738;9.320;2023-06-14T05:31:47;15.20;89.00
23445;DHT22;11895;48.738;9.320;2023-06-14T05:34:15;15.50;86.80
23445;DHT22;11895;48.738;9.320;2023-06-14T05:36:42;15.60;88.90
23445;DHT22;11895;48.738;9.320;2023-06-14T05:39:09;15.80;89.10
23445;DHT22;11895;48.738;9.320;2023-06-14T05:41:37;16.70;89.30
23445;DHT22;11895;48.738;9.320;2023-06-14T05:44:04;16.00;89.10
23445;DHT22;11895;48.738;9.320;2023-06-14T05:46:31;16.00;89.00
23445;DHT22;11895;48.738;9.320;2023-06-14T05:48:58;15.90;86.40
23445;DHT22;11895;48.738;9.320;2023-06-14T05:51:26;15.90;87.70
23445;DHT22;11895;48.738;9.320;2023-06-14T05:53:53;16.00;85.50
23445;DHT22;11895;48.738;9.320;2023-06-14T05:56:21;16.30;88.00
23445;DHT22;11895;48.738;9.320;2023-06-14T05:58:49;16.10;87.40
23445;DHT22;11895;48.738;9.320;2023-06-14T06:01:17;16.60;88.30
23445;DHT22;11895;48.738;9.320;2023-06-14T06:03:44;16.10;87.50
23445;DHT22;11895;48.738;9.320;2023-06-14T06:06:14;16.10;88.00
23445;DHT22;11895;48.738;9.320;2023-06-14T06:08:41;16.80;87.30
23445;DHT22;11895;48.738;9.320;2023-06-14T06:11:09;16.70;87.30
23445;DHT22;11895;48.738;9.320;2023-06-14T06:16:06;16.90;85.40
23445;DHT22;11895;48.738;9.320;2023-06-14T06:18:33;17.00;85.70
23445;DHT22;11895;48.738;9.320;2023-06-14T06:21:01;17.30;85.60
23445;DHT22;11895;48.738;9.320;2023-06-14T06:23:30;17.30;84.70
23445;DHT22;11895;48.738;9.320;2023-06-14T06:25:57;17.40;82.50
23445;DHT22;11895;48.738;9.320;2023-06-14T06:28:24;17.50;83.50
23445;DHT22;11895;48.738;9.320;2023-06-14T06:30:51;17.70;81.70
23445;DHT22;11895;48.738;9.320;2023-06-14T06:33:20;17.70;83.00
23445;DHT22;11895;48.738;9.320;2023-06-14T06:35:48;18.00;78.70
23445;DHT22;11895;48.738;9.320;2023-06-14T06:38:15;18.30;79.50
23445;DHT22;11895;48.738;9.320;2023-06-14T06:40:45;18.40;80.30
23445;DHT22;11895;48.738;9.320;2023-06-14T06:43:12;18.50;80.60
23445;DHT22;11895;48.738;9.320;2023-06-14T06:45:46;18.70;79.80
23445;DHT22;11895;48.738;9.320;2023-06-14T06:48:14;18.90;78.60
23445;DHT22;11895;48.738;9.320;2023-06-14T06:50:42;19.00;78.70
23445;DHT22;11895;48.738;9.320;2023-06-14T06:53:10;19.20;77.40
23445;DHT22;11895;48.738;9.320;2023-06-14T06:55:37;19.60;77.60
23445;DHT22;11895;48.738;9.320;2023-06-14T06:58:04;19.20;77.60
23445;DHT22;11895;48.738;9.320;2023-06-14T07:00:32;19.30;77.50
23445;DHT22;11895;48.738;9.320;2023-06-14T07:02:59;19.40;77.00
23445;DHT22;11895;48.738;9.320;2023-06-14T07:05:27;19.60;76.30
23445;DHT22;11895;48.738;9.320;2023-06-14T07:07:54;19.80;76.20
23445;DHT22;11895;48.738;9.320;2023-06-14T07:10:24;19.90;75.50
23445;DHT22;11895;48.738;9.320;2023-06-14T07:12:51;20.00;75.40
23445;DHT22;11895;48.738;9.320;2023-06-14T07:15:19;20.20;74.70
23445;DHT22;11895;48.738;9.320;2023-06-14T07:17:46;19.90;74.70
23445;DHT22;11895;48.738;9.320;2023-06-14T07:20:13;20.30;74.50
23445;DHT22;11895;48.738;9.320;2023-06-14T07:22:43;20.40;72.60
23445;DHT22;11895;48.738;9.320;2023-06-14T07:25:10;20.70;71.70
23445;DHT22;11895;48.738;9.320;2023-06-14T07:27:42;20.90;70.40
23445;DHT22;11895;48.738;9.320;2023-06-14T07:30:10;21.10;70.50
23445;DHT22;11895;48.738;9.320;2023-06-14T07:32:38;21.30;71.10
23445;DHT22;11895;48.738;9.320;2023-06-14T07:35:06;21.50;70.30
23445;DHT22;11895;48.738;9.320;2023-06-14T07:37:33;21.50;70.30
23445;DHT22;11895;48.738;9.320;2023-06-14T07:40:02;21.60;70.60
23445;DHT22;11895;48.738;9.320;2023-06-14T07:42:34;21.70;69.80
23445;DHT22;11895;48.738;9.320;2023-06-14T07:45:03;21.80;69.50
23445;DHT22;11895;48.738;9.320;2023-06-14T07:47:32;22.00;69.50
23445;DHT22;11895;48.738;9.320;2023-06-14T07:50:00;22.10;69.70
23445;DHT22;11895;48.738;9.320;2023-06-14T07:52:27;22.30;68.80
23445;DHT22;11895;48.738;9.320;2023-06-14T07:54:55;22.40;68.20
23445;DHT22;11895;48.738;9.320;2023-06-14T07:57:22;22.50;68.10
23445;DHT22;11895;48.738;9.320;2023-06-14T07:59:50;22.70;68.20
23445;DHT22;11895;48.738;9.320;2023-06-14T08:02:17;22.70;67.80
23445;DHT22;11895;48.738;9.320;2023-06-14T08:04:44;22.90;67.50
23445;DHT22;11895;48.738;9.320;2023-06-14T08:07:14;22.90;67.60
23445;DHT22;11895;48.738;9.320;2023-06-14T08:09:41;23.00;67.60
23445;DHT22;11895;48.738;9.320;2023-06-14T08:12:09;23.10;66.90
23445;DHT22;11895;48.738;9.320;2023-06-14T08:14:36;23.30;66.70
23445;DHT22;11895;48.738;9.320;2023-06-14T08:17:04;23.40;66.50
23445;DHT22;11895;48.738;9.320;2023-06-14T08:19:31;23.50;66.20
23445;DHT22;11895;48.738;9.320;2023-06-14T08:21:59;23.60;66.00
23445;DHT22;11895;48.738;9.320;2023-06-14T08:24:26;23.60;65.50
23445;DHT22;11895;48.738;9.320;2023-06-14T08:26:54;23.80;65.80
23445;DHT22;11895;48.738;9.320;2023-06-14T08:29:21;23.90;65.10
23445;DHT22;11895;48.738;9.320;2023-06-14T08:31:49;23.90;65.40
23445;DHT22;11895;48.738;9.320;2023-06-14T08:34:16;24.00;65.50
23445;DHT22;11895;48.738;9.320;2023-06-14T08:36:43;24.10;64.90
23445;DHT22;11895;48.738;9.320;2023-06-14T08:39:10;24.20;65.30
23445;DHT22;11895;48.738;9.320;2023-06-14T08:41:38;24.20;64.30
23445;DHT22;11895;48.738;9.320;2023-06-14T08:44:05;24.30;63.90
23445;DHT22;11895;48.738;9.320;2023-06-14T08:46:34;24.40;64.00
23445;DHT22;11895;48.738;9.320;2023-06-14T08:49:04;24.50;63.80
23445;DHT22;11895;48.738;9.320;2023-06-14T08:51:35;24.50;63.40
23445;DHT22;11895;48.738;9.320;2023-06-14T08:54:04;24.80;63.20
23445;DHT22;11895;48.738;9.320;2023-06-14T08:56:31;24.90;62.80
23445;DHT22;11895;48.738;9.320;2023-06-14T08:59:00;24.90;62.40
23445;DHT22;11895;48.738;9.320;2023-06-14T09:01:34;25.00;62.30
23445;DHT22;11895;48.738;9.320;2023-06-14T09:04:03;25.00;62.20
23445;DHT22;11895;48.738;9.320;2023-06-14T09:06:32;25.00;61.70
23445;DHT22;11895;48.738;9.320;2023-06-14T09:09:00;25.10;61.50
23445;DHT22;11895;48.738;9.320;2023-06-14T09:11:27;25.20;61.80
23445;DHT22;11895;48.738;9.320;2023-06-14T09:13:55;25.30;60.90
23445;DHT22;11895;48.738;9.320;2023-06-14T09:16:22;25.30;60.50
23445;DHT22;11895;48.738;9.320;2023-06-14T09:18:49;25.20;61.20
23445;DHT22;11895;48.738;9.320;2023-06-14T09:21:17;25.10;61.20
23445;DHT22;11895;48.738;9.320;2023-06-14T09:23:46;25.20;60.40
23445;DHT22;11895;48.738;9.320;2023-06-14T09:26:16;25.30;60.90
23445;DHT22;11895;48.738;9.320;2023-06-14T09:28:48;25.40;60.00
23445;DHT22;11895;48.738;9.320;2023-06-14T09:31:18;25.50;59.90
23445;DHT22;11895;48.738;9.320;2023-06-14T09:33:49;25.50;59.50
23445;DHT22;11895;48.738;9.320;2023-06-14T09:36:21;25.50;59.30
23445;DHT22;11895;48.738;9.320;2023-06-14T09:39:01;25.60;59.50
23445;DHT22;11895;48.738;9.320;2023-06-14T09:41:38;25.70;59.30
23445;DHT22;11895;48.738;9.320;2023-06-14T09:44:08;26.00;57.20
23445;DHT22;11895;48.738;9.320;2023-06-14T09:46:45;26.20;56.80
23445;DHT22;11895;48.738;9.320;2023-06-14T09:49:14;26.50;55.40
23445;DHT22;11895;48.738;9.320;2023-06-14T09:51:45;26.70;56.50
23445;DHT22;11895;48.738;9.320;2023-06-14T09:54:22;26.90;56.10
23445;DHT22;11895;48.738;9.320;2023-06-14T09:56:53;27.20;55.20
23445;DHT22;11895;48.738;9.320;2023-06-14T09:59:23;27.40;55.00
23445;DHT22;11895;48.738;9.320;2023-06-14T10:02:05;27.60;54.10
23445;DHT22;11895;48.738;9.320;2023-06-14T10:04:43;27.50;54.90
23445;DHT22;11895;48.738;9.320;2023-06-14T10:07:20;27.10;55.80
23445;DHT22;11895;48.738;9.320;2023-06-14T10:09:49;26.90;56.70
23445;DHT22;11895;48.738;9.320;2023-06-14T10:12:17;26.80;56.90
23445;DHT22;11895;48.738;9.320;2023-06-14T10:14:50;26.70;56.90
23445;DHT22;11895;48.738;9.320;2023-06-14T10:23:05;26.70;56.20
23445;DHT22;11895;48.738;9.320;2023-06-14T10:25:38;26.60;56.10
23445;DHT22;11895;48.738;9.320;2023-06-14T10:30:39;26.50;56.00
23445;DHT22;11895;48.738;9.320;2023-06-14T10:33:07;26.50;56.30
23445;DHT22;11895;48.738;9.320;2023-06-14T10:35:34;26.40;56.40
23445;DHT22;11895;48.738;9.320;2023-06-14T10:38:10;26.60;55.70
23445;DHT22;11895;48.738;9.320;2023-06-14T10:40:39;26.80;54.80
23445;DHT22;11895;48.738;9.320;2023-06-14T10:43:24;27.00;54.50
23445;DHT22;11895;48.738;9.320;2023-06-14T10:48:44;27.90;52.40
23445;DHT22;11895;48.738;9.320;2023-06-14T10:51:21;28.20;52.70
23445;DHT22;11895;48.738;9.320;2023-06-14T10:53:49;28.60;52.60
23445;DHT22;11895;48.738;9.320;2023-06-14T10:56:30;28.90;51.70
23445;DHT22;11895;48.738;9.320;2023-06-14T10:58:58;29.10;51.80
23445;DHT22;11895;48.738;9.320;2023-06-14T11:04:49;29.40;50.70
23445;DHT22;11895;48.738;9.320;2023-06-14T11:07:47;29.50;50.10
23445;DHT22;11895;48.738;9.320;2023-06-14T11:10:45;29.60;50.20
23445;DHT22;11895;48.738;9.320;2023-06-14T11:13:12;29.70;50.10
23445;DHT22;11895;48.738;9.320;2023-06-14T11:15:44;29.80;50.20
23445;DHT22;11895;48.738;9.320;2023-06-14T11:18:15;30.00;49.40
23445;DHT22;11895;48.738;9.320;2023-06-14T11:20:46;30.10;49.40
23445;DHT22;11895;48.738;9.320;2023-06-14T11:23:14;30.30;49.40
23445;DHT22;11895;48.738;9.320;2023-06-14T11:25:41;30.50;48.10
23445;DHT22;11895;48.738;9.320;2023-06-14T11:28:09;30.60;48.60
23445;DHT22;11895;48.738;9.320;2023-06-14T11:30:36;30.60;48.40
23445;DHT22;11895;48.738;9.320;2023-06-14T11:33:03;30.70;48.50
23445;DHT22;11895;48.738;9.320;2023-06-14T11:35:30;30.60;48.50
23445;DHT22;11895;48.738;9.320;2023-06-14T11:37:58;30.60;48.60
23445;DHT22;11895;48.738;9.320;2023-06-14T11:40:26;30.50;49.10
23445;DHT22;11895;48.738;9.320;2023-06-14T11:43:01;30.50;48.50
23445;DHT22;11895;48.738;9.320;2023-06-14T11:45:30;30.40;49.30
23445;DHT22;11895;48.738;9.320;2023-06-14T11:47:58;30.40;49.00
23445;DHT22;11895;48.738;9.320;2023-06-14T11:50:26;30.30;48.80
23445;DHT22;11895;48.738;9.320;2023-06-14T11:52:55;30.10;49.00
23445;DHT22;11895;48.738;9.320;2023-06-14T11:55:26;30.30;48.90
23445;DHT22;11895;48.738;9.320;2023-06-14T11:57:54;31.00;48.10
23445;DHT22;11895;48.738;9.320;2023-06-14T12:00:25;32.00;47.60
23445;DHT22;11895;48.738;9.320;2023-06-14T12:02:56;33.20;46.40
23445;DHT22;11895;48.738;9.320;2023-06-14T12:05:25;34.50;45.20
23445;DHT22;11895;48.738;9.320;2023-06-14T12:08:00;35.10;43.50
23445;DHT22;11895;48.738;9.320;2023-06-14T12:10:29;35.90;43.00
23445;DHT22;11895;48.738;9.320;2023-06-14T12:12:58;36.10;42.70
23445;DHT22;11895;48.738;9.320;2023-06-14T12:15:29;35.10;42.50
23445;DHT22;11895;48.738;9.320;2023-06-14T12:17:57;34.00;43.10
23445;DHT22;11895;48.738;9.320;2023-06-14T12:20:28;32.70;44.10
23445;DHT22;11895;48.738;9.320;2023-06-14T12:23:03;32.00;45.00
23445;DHT22;11895;48.738;9.320;2023-06-14T12:25:32;31.50;46.30
23445;DHT22;11895;48.738;9.320;2023-06-14T12:28:08;31.30;47.50
23445;DHT22;11895;48.738;9.320;2023-06-14T12:30:37;31.00;47.10
23445;DHT22;11895;48.738;9.320;2023-06-14T12:33:05;31.00;47.20
23445;DHT22;11895;48.738;9.320;2023-06-14T12:35:34;32.20;47.10
23445;DHT22;11895;48.738;9.320;2023-06-14T12:38:01;35.50;42.20
23445;DHT22;11895;48.738;9.320;2023-06-14T12:40:30;35.50;42.70
23445;DHT22;11895;48.738;9.320;2023-06-14T12:42:58;37.40;41.30
23445;DHT22;11895;48.738;9.320;2023-06-14T12:45:25;38.80;39.90
23445;DHT22;11895;48.738;9.320;2023-06-14T13:57:11;40.30;35.30
23445;DHT22;11895;48.738;9.320;2023-06-14T13:59:40;38.90;37.10
23445;DHT22;11895;48.738;9.320;2023-06-14T14:02:08;38.10;38.20
23445;DHT22;11895;48.738;9.320;2023-06-14T14:04:35;39.00;37.80
23445;DHT22;11895;48.738;9.320;2023-06-14T14:07:07;40.50;37.20
23445;DHT22;11895;48.738;9.320;2023-06-14T14:09:35;41.50;36.20
23445;DHT22;11895;48.738;9.320;2023-06-14T14:12:04;41.10;36.10
23445;DHT22;11895;48.738;9.320;2023-06-14T14:14:32;40.20;37.00
23445;DHT22;11895;48.738;9.320;2023-06-14T14:17:00;39.30;37.40
23445;DHT22;11895;48.738;9.320;2023-06-14T14:19:27;39.20;38.10
23445;DHT22;11895;48.738;9.320;2023-06-14T14:21:54;40.40;37.90
23445;DHT22;11895;48.738;9.320;2023-06-14T14:24:22;41.60;36.80
23445;DHT22;11895;48.738;9.320;2023-06-14T14:26:49;42.30;36.00
23445;DHT22;11895;48.738;9.320;2023-06-14T14:29:20;42.60;35.50
23445;DHT22;11895;48.738;9.320;2023-06-14T14:31:47;42.10;35.20
23445;DHT22;11895;48.738;9.320;2023-06-14T14:34:14;40.90;35.90
23445;DHT22;11895;48.738;9.320;2023-06-14T14:36:42;39.40;37.10
23445;DHT22;11895;48.738;9.320;2023-06-14T14:39:09;38.00;38.20
23445;DHT22;11895;48.738;9.320;2023-06-14T14:41:36;38.40;38.00
23445;DHT22;11895;48.738;9.320;2023-06-14T14:44:08;39.80;37.60
23445;DHT22;11895;48.738;9.320;2023-06-14T14:46:35;41.30;36.50
23445;DHT22;11895;48.738;9.320;2023-06-14T14:49:03;41.20;35.80
23445;DHT22;11895;48.738;9.320;2023-06-14T14:51:30;40.20;36.00
23445;DHT22;11895;48.738;9.320;2023-06-14T14:53:57;39.00;37.30
23445;DHT22;11895;48.738;9.320;2023-06-14T14:56:24;39.20;38.10
23445;DHT22;11895;48.738;9.320;2023-06-14T14:58:52;40.40;36.70
23445;DHT22;11895;48.738;9.320;2023-06-14T15:01:20;41.40;36.00
23445;DHT22;11895;48.738;9.320;2023-06-14T15:03:47;41.00;36.00
23445;DHT22;11895;48.738;9.320;2023-06-14T15:06:17;41.20;36.20
23445;DHT22;11895;48.738;9.320;2023-06-14T15:08:44;43.20;34.40
23445;DHT22;11895;48.738;9.320;2023-06-14T15:11:12;43.20;34.90
23445;DHT22;11895;48.738;9.320;2023-06-14T15:13:39;43.20;34.40
23445;DHT22;11895;48.738;9.320;2023-06-14T15:16:06;41.30;35.60
23445;DHT22;11895;48.738;9.320;2023-06-14T15:18:33;39.50;37.50
23445;DHT22;11895;48.738;9.320;2023-06-14T15:21:01;37.90;38.30
23445;DHT22;11895;48.738;9.320;2023-06-14T15:23:28;36.60;39.30
23445;DHT22;11895;48.738;9.320;2023-06-14T15:25:55;35.50;40.80
23445;DHT22;11895;48.738;9.320;2023-06-14T15:28:22;34.80;41.50
23445;DHT22;11895;48.738;9.320;2023-06-14T15:30:51;34.00;42.40
23445;DHT22;11895;48.738;9.320;2023-06-14T15:33:18;33.40;43.10
23445;DHT22;11895;48.738;9.320;2023-06-14T15:35:47;33.10;43.60
23445;DHT22;11895;48.738;9.320;2023-06-14T15:38:15;32.90;43.70
23445;DHT22;11895;48.738;9.320;2023-06-14T15:40:42;32.90;43.90
23445;DHT22;11895;48.738;9.320;2023-06-14T15:43:09;34.10;43.90
23445;DHT22;11895;48.738;9.320;2023-06-14T15:45:37;36.20;41.00
23445;DHT22;11895;48.738;9.320;2023-06-14T15:48:04;38.30;39.20
23445;DHT22;11895;48.738;9.320;2023-06-14T15:50:32;39.60;38.00
23445;DHT22;11895;48.738;9.320;2023-06-14T15:52:59;40.70;37.20
23445;DHT22;11895;48.738;9.320;2023-06-14T15:55:27;41.50;36.30
23445;DHT22;11895;48.738;9.320;2023-06-14T15:57:54;41.80;35.80
23445;DHT22;11895;48.738;9.320;2023-06-14T16:00:21;42.20;35.30
23445;DHT22;11895;48.738;9.320;2023-06-14T16:02:49;42.50;35.20
23445;DHT22;11895;48.738;9.320;2023-06-14T16:05:17;42.60;35.20
23445;DHT22;11895;48.738;9.320;2023-06-14T16:07:44;42.60;34.80
23445;DHT22;11895;48.738;9.320;2023-06-14T16:10:11;41.90;35.10
23445;DHT22;11895;48.738;9.320;2023-06-14T16:12:38;40.40;36.10
23445;DHT22;11895;48.738;9.320;2023-06-14T16:15:06;39.50;37.20
23445;DHT22;11895;48.738;9.320;2023-06-14T16:17:34;39.50;37.10
23445;DHT22;11895;48.738;9.320;2023-06-14T16:20:02;40.00;36.90
23445;DHT22;11895;48.738;9.320;2023-06-14T16:22:30;40.30;36.60
23445;DHT22;11895;48.738;9.320;2023-06-14T16:24:57;39.90;36.80
23445;DHT22;11895;48.738;9.320;2023-06-14T16:27:24;39.00;37.30
23445;DHT22;11895;48.738;9.320;2023-06-14T16:29:51;37.40;37.90
23445;DHT22;11895;48.738;9.320;2023-06-14T16:32:19;36.20;39.50
23445;DHT22;11895;48.738;9.320;2023-06-14T16:34:47;35.10;40.70
23445;DHT22;11895;48.738;9.320;2023-06-14T16:37:14;34.30;41.40
23445;DHT22;11895;48.738;9.320;2023-06-14T16:39:41;33.70;42.00
23445;DHT22;11895;48.738;9.320;2023-06-14T16:42:09;33.20;42.50
23445;DHT22;11895;48.738;9.320;2023-06-14T16:44:37;32.90;43.00
23445;DHT22;11895;48.738;9.320;2023-06-14T16:47:04;32.50;43.60
23445;DHT22;11895;48.738;9.320;2023-06-14T16:49:33;32.00;44.00
23445;DHT22;11895;48.738;9.320;2023-06-14T16:52:01;31.50;44.80
23445;DHT22;11895;48.738;9.320;2023-06-14T16:54:28;31.10;45.50
23445;DHT22;11895;48.738;9.320;2023-06-14T16:56:56;30.70;45.80
23445;DHT22;11895;48.738;9.320;2023-06-14T16:59:23;30.40;46.40
23445;DHT22;11895;48.738;9.320;2023-06-14T17:01:50;30.30;46.50
23445;DHT22;11895;48.738;9.320;2023-06-14T17:04:21;30.00;47.20
23445;DHT22;11895;48.738;9.320;2023-06-14T17:06:49;29.80;47.40
23445;DHT22;11895;48.738;9.320;2023-06-14T17:09:16;29.70;47.80
23445;DHT22;11895;48.738;9.320;2023-06-14T17:11:43;29.60;48.80